Time;durP1;ratioP1;P1;durP2;ratioP2;P2;SDS_P1;SDS_P2;PMS_P1;PMS_P2;Temp;Humidity;BMP_temperature;BMP_pressure;BME280_temperature;BME280_humidity;BME280_pressure;Samples;Min_cycle;Max_cycle;Signal;HPM_P1;HPM_P2
2022/01/13 00:00:33;;;;;;;89.93;25.15;;;;;;;-4.25;100.00;97560.44;5088244;28;20071;-76
2022/01/13 00:03:12;;;;;;;91.28;26.50;;;;;;;-4.12;100.00;97562.84;5088187;28;20044;-75
2022/01/13 00:05:37;;;;;;;88.50;25.95;;;;;;;-4.10;100.00;97553.25;5094757;28;20421;-76
2022/01/13 00:08:03;;;;;;;90.25;27.55;;;;;;;-4.05;100.00;97546.78;5099789;28;20036;-76
2022/01/13 00:10:29;;;;;;;92.93;26.00;;;;;;;-4.02;100.00;97540.59;5104424;28;20382;-76
2022/01/13 00:12:59;;;;;;;94.18;25.27;;;;;;;-3.92;100.00;97550.91;5105038;28;20036;-76
2022/01/13 00:15:39;;;;;;;92.63;26.17;;;;;;;-3.80;100.00;97562.75;5088647;28;20044;-75
2022/01/13 00:18:36;;;;;;;84.80;25.13;;;;;;;-3.85;100.00;97562.31;5101160;28;20059;-75
2022/01/13 00:23:46;;;;;;;82.18;23.77;;;;;;;-3.66;100.00;97567.56;5119847;28;20198;-76
2022/01/13 00:26:20;;;;;;;79.85;24.38;;;;;;;-3.68;100.00;97573.78;5087568;28;20052;-76
2022/01/13 00:28:49;;;;;;;95.47;26.00;;;;;;;-3.89;100.00;97572.06;5098931;28;20039;-75
2022/01/13 00:31:18;;;;;;;89.07;26.70;;;;;;;-3.93;100.00;97565.53;5094365;28;20093;-75
2022/01/13 00:33:46;;;;;;;81.55;24.67;;;;;;;-3.76;100.00;97571.84;5087918;28;20494;-75
2022/01/13 00:36:12;;;;;;;84.40;25.17;;;;;;;-3.72;100.00;97564.69;5104500;28;20097;-76
2022/01/13 00:38:38;;;;;;;87.45;25.05;;;;;;;-3.93;100.00;97575.03;5115568;28;20040;-76
2022/01/13 00:41:04;;;;;;;89.65;25.98;;;;;;;-3.90;100.00;97579.91;5106977;28;20101;-75
2022/01/13 00:43:31;;;;;;;86.25;24.90;;;;;;;-3.54;100.00;97590.66;5112112;28;20043;-75
2022/01/13 00:45:57;;;;;;;77.82;22.98;;;;;;;-3.67;100.00;97596.00;5087567;28;20064;-75
2022/01/13 00:48:22;;;;;;;86.88;26.45;;;;;;;-3.56;100.00;97592.50;5089416;28;20043;-76
2022/01/13 00:50:48;;;;;;;93.35;27.40;;;;;;;-3.76;100.00;97592.44;5074409;28;20096;-76
2022/01/13 00:53:14;;;;;;;93.13;27.60;;;;;;;-3.84;100.00;97599.97;5099743;28;20087;-75
2022/01/13 00:55:57;;;;;;;111.55;27.95;;;;;;;-4.07;100.00;97589.00;5103318;27;20488;-75
2022/01/13 00:58:25;;;;;;;105.10;28.95;;;;;;;-3.96;100.00;97585.56;5098788;27;20085;-75
2022/01/13 01:00:51;;;;;;;110.43;30.30;;;;;;;-4.06;100.00;97585.50;5080816;27;20994;-75
2022/01/13 01:03:16;;;;;;;106.05;27.25;;;;;;;-3.95;100.00;97589.75;5114595;27;20096;-75
2022/01/13 01:05:42;;;;;;;113.40;28.67;;;;;;;-4.13;100.00;97592.91;5099654;27;20088;-75
2022/01/13 01:08:12;;;;;;;122.07;28.05;;;;;;;-4.08;100.00;97589.94;5114807;27;20044;-75
2022/01/13 01:10:39;;;;;;;95.88;26.98;;;;;;;-3.84;100.00;97589.69;5091358;28;20182;-75
2022/01/13 01:13:14;;;;;;;91.53;25.65;;;;;;;-3.66;100.00;97577.84;5091858;28;20386;-75
2022/01/13 01:15:44;;;;;;;89.07;24.88;;;;;;;-3.47;100.00;97570.34;5090559;28;20048;-75
2022/01/13 01:21:29;;;;;;;90.30;24.58;;;;;;;-3.64;100.00;97582.06;5107919;27;20043;-76
2022/01/13 01:27:00;;;;;;;87.90;25.08;;;;;;;-3.86;100.00;97587.25;5106736;27;20048;-76
2022/01/13 01:32:14;;;;;;;79.22;22.85;;;;;;;-3.61;100.00;97594.69;5085644;28;20452;-76
2022/01/13 01:34:55;;;;;;;83.78;22.52;;;;;;;-3.58;100.00;97584.13;5091482;28;20040;-76
2022/01/13 01:37:26;;;;;;;84.55;23.00;;;;;;;-3.56;100.00;97592.50;5081688;27;20645;-76
2022/01/13 01:39:53;;;;;;;90.45;23.83;;;;;;;-3.54;100.00;97600.94;5116001;27;20039;-75
2022/01/13 01:42:20;;;;;;;97.68;25.23;;;;;;;-3.75;100.00;97588.94;5096421;28;20040;-74
2022/01/13 01:44:48;;;;;;;88.25;25.13;;;;;;;-3.94;100.00;97589.63;5097235;27;20039;-75
2022/01/13 01:47:17;;;;;;;81.15;23.40;;;;;;;-3.59;100.00;97592.78;5090728;28;20043;-76
2022/01/13 01:49:45;;;;;;;85.40;22.77;;;;;;;-3.56;100.00;97592.50;5091536;28;20912;-75
2022/01/13 01:52:14;;;;;;;75.50;22.58;;;;;;;-3.82;100.00;97587.81;5080464;28;20067;-75
2022/01/13 01:54:40;;;;;;;89.97;25.92;;;;;;;-4.19;100.00;97590.81;5089918;28;20638;-76
2022/01/13 01:57:06;;;;;;;84.85;24.73;;;;;;;-4.16;100.00;97590.56;5109689;27;20039;-75
2022/01/13 01:59:35;;;;;;;76.45;21.95;;;;;;;-3.86;100.00;97591.56;5114819;27;20588;-75
2022/01/13 02:02:01;;;;;;;64.85;19.17;;;;;;;-3.72;100.00;97583.53;5103762;28;20048;-75
2022/01/13 02:04:27;;;;;;;76.55;23.23;;;;;;;-3.85;100.00;97583.72;5099021;27;20051;-75
2022/01/13 02:06:55;;;;;;;69.50;21.67;;;;;;;-3.74;100.00;97580.25;5116806;27;20047;-76
2022/01/13 02:09:21;;;;;;;81.75;24.02;;;;;;;-4.04;100.00;97583.59;5107014;27;20043;-75
2022/01/13 02:11:52;;;;;;;78.45;22.70;;;;;;;-3.85;100.00;97576.00;5114835;27;20047;-75
2022/01/13 02:16:50;;;;;;;75.50;22.75;;;;;;;-4.10;100.00;97574.63;5106932;27;20039;-75
2022/01/13 02:19:17;;;;;;;81.80;24.23;;;;;;;-3.89;100.00;97579.78;5098302;27;20044;-76
2022/01/13 02:21:43;;;;;;;82.15;22.73;;;;;;;-4.04;100.00;97583.59;5107693;28;20059;-75
2022/01/13 02:24:09;;;;;;;79.38;22.20;;;;;;;-4.10;100.00;97582.34;5104940;28;20123;-75
2022/01/13 02:26:35;;;;;;;76.93;23.10;;;;;;;-4.22;100.00;97575.66;5116535;27;20067;-75
2022/01/13 02:29:00;;;;;;;86.10;23.55;;;;;;;-3.93;100.00;97569.88;5099758;27;20462;-76
2022/01/13 02:31:27;;;;;;;73.55;21.80;;;;;;;-3.79;100.00;97572.13;5089623;28;20042;-75
2022/01/13 02:33:53;;;;;;;69.28;20.83;;;;;;;-3.81;100.00;97563.69;5090857;28;20770;-76
2022/01/13 02:36:20;;;;;;;71.95;21.17;;;;;;;-3.94;100.00;97565.66;5088660;28;20105;-76
2022/01/13 02:38:48;;;;;;;79.15;22.98;;;;;;;-4.00;100.00;97565.22;5103137;27;20035;-75
2022/01/13 02:41:14;;;;;;;73.15;20.92;;;;;;;-4.12;100.00;97561.09;5096226;28;20050;-75
2022/01/13 02:43:39;;;;;;;69.68;20.88;;;;;;;-3.80;100.00;97557.63;5117012;27;20423;-75
2022/01/13 02:49:21;;;;;;;73.20;22.90;;;;;;;-4.08;100.00;97551.38;5069905;28;20417;-75
2022/01/13 02:51:52;;;;;;;80.70;22.58;;;;;;;-4.16;100.00;97557.16;5092592;28;20047;-75
2022/01/13 02:54:19;;;;;;;79.10;23.83;;;;;;;-4.23;100.00;97568.88;5102557;28;20070;-76
2022/01/13 02:56:45;;;;;;;73.57;22.08;;;;;;;-4.18;100.00;97571.88;5117762;27;20137;-76
2022/01/13 02:59:12;;;;;;;57.30;19.83;;;;;;;-3.88;100.00;97573.69;5070733;28;20093;-75
2022/01/13 03:01:38;;;;;;;77.85;22.13;;;;;;;-4.13;100.00;97572.31;5113088;27;20046;-76
2022/01/13 03:04:07;;;;;;;70.35;22.05;;;;;;;-4.08;100.00;97571.94;5102187;27;20063;-75
2022/01/13 03:06:38;;;;;;;69.80;21.38;;;;;;;-3.91;100.00;97567.97;5093008;28;20044;-76
2022/01/13 03:09:07;;;;;;;68.80;20.73;;;;;;;-3.90;100.00;97572.19;5089540;28;20040;-75
2022/01/13 03:11:36;;;;;;;74.80;22.08;;;;;;;-3.88;100.00;97567.72;5088474;28;20517;-76
2022/01/13 03:14:03;;;;;;;82.13;22.77;;;;;;;-4.18;100.00;97587.28;5088830;28;20056;-75
2022/01/13 03:16:30;;;;;;;86.03;23.85;;;;;;;-4.22;100.00;97585.94;5116398;27;20043;-75
2022/01/13 03:18:56;;;;;;;91.68;24.08;;;;;;;-4.42;100.00;97593.50;5099660;28;20090;-76
2022/01/13 03:21:22;;;;;;;83.95;23.67;;;;;;;-4.45;100.00;97580.06;5113160;27;20057;-76
2022/01/13 03:23:48;;;;;;;81.65;22.42;;;;;;;-4.29;100.00;97579.66;5087560;28;20047;-75
2022/01/13 03:26:13;;;;;;;83.57;26.70;;;;;;;-4.21;100.00;97587.56;5107382;28;20466;-76
2022/01/13 03:28:52;;;;;;;84.65;22.67;;;;;;;-4.26;100.00;97579.41;5106284;28;20032;-76
2022/01/13 03:31:19;;;;;;;89.28;24.27;;;;;;;-4.22;100.00;97596.22;5111923;27;20469;-76
2022/01/13 03:33:45;;;;;;;84.82;25.33;;;;;;;-4.26;100.00;97589.69;5110784;27;20044;-75
2022/01/13 03:36:11;;;;;;;89.50;25.40;;;;;;;-4.42;100.00;97590.94;5088325;28;20047;-76
2022/01/13 03:38:37;;;;;;;84.03;23.23;;;;;;;-4.14;100.00;97593.81;5102952;28;20503;-76
2022/01/13 03:41:03;;;;;;;85.85;23.48;;;;;;;-4.12;100.00;97586.81;5087547;28;20088;-76
2022/01/13 03:43:29;;;;;;;93.93;25.20;;;;;;;-4.18;100.00;97587.28;5109401;28;20119;-75
2022/01/13 03:45:55;;;;;;;83.93;25.17;;;;;;;-4.36;100.00;97590.44;5119457;28;20081;-75
2022/01/13 03:48:21;;;;;;;95.05;24.77;;;;;;;-4.01;100.00;97579.03;5120353;28;20044;-76
2022/01/13 03:50:47;;;;;;;82.78;22.98;;;;;;;-3.84;100.00;97564.75;5115303;28;20043;-76
2022/01/13 03:53:28;;;;;;;80.18;23.42;;;;;;;-4.08;100.00;97566.78;5103303;28;20587;-76
2022/01/13 03:56:13;;;;;;;77.85;22.60;;;;;;;-3.93;100.00;97570.69;5087588;28;20089;-75
2022/01/13 03:59:17;;;;;;;79.00;22.88;;;;;;;-4.15;100.00;97569.06;5066169;28;20086;-75
2022/01/13 04:01:54;;;;;;;73.85;21.45;;;;;;;-3.93;100.00;97572.44;5091405;28;20043;-75
2022/01/13 04:04:20;;;;;;;74.03;21.92;;;;;;;-3.91;100.00;97568.78;5106824;28;20044;-75
2022/01/13 04:06:45;;;;;;;72.32;23.10;;;;;;;-4.24;100.00;97567.22;5089452;28;20100;-76
2022/01/13 04:09:49;;;;;;;84.10;22.63;;;;;;;-4.39;100.00;97570.13;5095952;28;20044;-76
2022/01/13 04:12:17;;;;;;;76.10;21.17;;;;;;;-3.93;100.00;97554.44;5109313;28;20061;-76
2022/01/13 04:14:47;;;;;;;81.50;22.85;;;;;;;-3.84;100.00;97561.38;5105717;28;20700;-76
2022/01/13 04:17:15;;;;;;;74.40;21.98;;;;;;;-3.82;100.00;97559.50;5089009;28;20051;-75
2022/01/13 04:19:42;;;;;;;66.70;20.88;;;;;;;-4.02;100.00;97556.81;5087914;28;20032;-76
2022/01/13 04:22:09;;;;;;;71.60;21.55;;;;;;;-3.94;100.00;97557.94;5088386;28;20044;-76
2022/01/13 04:24:39;;;;;;;72.53;19.83;;;;;;;-3.88;100.00;97563.41;5086722;28;20039;-75
2022/01/13 04:27:09;;;;;;;80.97;21.80;;;;;;;-3.93;100.00;97564.72;5112948;28;20496;-75
2022/01/13 04:29:41;;;;;;;73.00;20.70;;;;;;;-3.96;100.00;97575.28;5092855;28;20115;-75
2022/01/13 04:32:07;;;;;;;74.57;20.70;;;;;;;-4.01;100.00;97581.63;5106278;27;20050;-76
2022/01/13 04:34:34;;;;;;;77.35;20.20;;;;;;;-4.05;100.00;97582.81;5106784;27;20040;-76
2022/01/13 04:37:00;;;;;;;77.93;21.08;;;;;;;-4.06;100.00;97582.94;5097995;28;20035;-76
2022/01/13 04:39:29;;;;;;;69.45;20.02;;;;;;;-4.09;100.00;97581.41;5097448;27;20040;-76
2022/01/13 04:41:56;;;;;;;72.78;21.80;;;;;;;-4.07;100.00;97587.25;5121866;27;20047;-76
2022/01/13 04:44:23;;;;;;;74.22;18.70;;;;;;;-4.13;100.00;97590.31;5083469;28;20059;-76
2022/01/13 04:46:51;;;;;;;71.40;20.02;;;;;;;-4.18;100.00;97592.44;5091833;28;20451;-76
2022/01/13 04:49:20;;;;;;;71.35;21.80;;;;;;;-4.20;100.00;97586.63;5104333;28;20051;-76
2022/01/13 04:51:48;;;;;;;61.88;18.77;;;;;;;-4.17;100.00;97583.78;5104957;27;20035;-75
2022/01/13 04:54:15;;;;;;;76.95;20.95;;;;;;;-4.21;100.00;97577.25;5110614;27;20035;-76
2022/01/13 04:59:08;;;;;;;66.78;19.85;;;;;;;-4.29;100.00;97580.47;5105408;28;20143;-75
2022/01/13 05:01:34;;;;;;;80.63;20.92;;;;;;;-4.35;100.00;97576.63;5120344;27;20040;-76
2022/01/13 05:04:00;;;;;;;75.85;20.33;;;;;;;-4.33;100.00;97568.00;5109761;27;20114;-75
2022/01/13 05:06:25;;;;;;;84.55;22.23;;;;;;;-4.62;100.00;97568.59;5101132;28;20052;-76
2022/01/13 05:08:51;;;;;;;75.80;22.88;;;;;;;-4.70;100.00;97562.31;5073729;28;20119;-76
2022/01/13 05:11:18;;;;;;;66.80;19.88;;;;;;;-4.36;100.00;97564.72;5106633;27;20074;-76
2022/01/13 05:13:45;;;;;;;69.63;22.05;;;;;;;-4.23;100.00;97561.97;5107492;27;20046;-76
2022/01/13 05:18:53;;;;;;;78.78;21.55;;;;;;;-4.18;100.00;97583.00;5101484;27;20060;-76
2022/01/13 05:21:25;;;;;;;68.80;19.80;;;;;;;-4.14;100.00;97583.53;5072950;28;20040;-75
2022/01/13 05:23:52;;;;;;;65.78;19.98;;;;;;;-4.27;100.00;97582.91;5090728;28;20094;-76
2022/01/13 05:26:23;;;;;;;66.82;20.17;;;;;;;-4.36;100.00;97590.44;5106234;28;20048;-76
2022/01/13 05:28:49;;;;;;;73.70;20.80;;;;;;;-4.36;100.00;97590.44;5095667;28;20537;-76
2022/01/13 05:31:15;;;;;;;72.43;20.17;;;;;;;-4.31;100.00;97596.94;5098176;28;20095;-76
2022/01/13 05:33:41;;;;;;;58.45;17.10;;;;;;;-4.43;100.00;97589.28;5113476;27;20501;-76
2022/01/13 05:36:07;;;;;;;60.63;18.27;;;;;;;-4.44;100.00;97592.81;5106184;27;20054;-75
2022/01/13 05:38:33;;;;;;;52.85;17.23;;;;;;;-4.46;100.00;97593.88;5093605;27;20035;-75
2022/01/13 05:40:58;;;;;;;66.25;18.38;;;;;;;-4.53;100.00;97588.41;5087945;28;20130;-76
2022/01/13 05:43:25;;;;;;;59.33;18.50;;;;;;;-4.50;100.00;97587.34;5108918;28;20043;-76
2022/01/13 05:45:50;;;;;;;53.83;16.63;;;;;;;-4.52;100.00;97600.31;5103887;27;20389;-76
2022/01/13 05:48:16;;;;;;;55.58;18.38;;;;;;;-4.52;100.00;97600.31;5109042;27;20048;-76
2022/01/13 05:50:41;;;;;;;55.33;17.88;;;;;;;-4.59;100.00;97599.19;5100445;27;20058;-76
2022/01/13 05:53:07;;;;;;;54.47;16.35;;;;;;;-4.52;100.00;97600.31;5122352;27;20599;-75
2022/01/13 05:55:34;;;;;;;69.60;20.65;;;;;;;-4.68;100.00;97593.03;5099668;27;20520;-76
2022/01/13 05:57:59;;;;;;;68.50;19.23;;;;;;;-4.65;100.00;97594.53;5094142;28;20073;-76
2022/01/13 06:00:25;;;;;;;72.10;20.35;;;;;;;-4.58;100.00;97595.69;5089899;28;20047;-76
2022/01/13 06:02:51;;;;;;;65.53;20.77;;;;;;;-4.57;100.00;97597.28;5093677;28;20071;-76
2022/01/13 06:05:18;;;;;;;64.82;19.48;;;;;;;-4.59;100.00;97599.97;5096471;27;20043;-76
2022/01/13 06:07:45;;;;;;;61.00;18.80;;;;;;;-4.50;100.00;97607.91;5092469;28;20040;-76
2022/01/13 06:10:14;;;;;;;63.10;19.17;;;;;;;-4.70;100.00;97608.56;5108550;27;20032;-76
2022/01/13 06:12:40;;;;;;;72.97;22.33;;;;;;;-4.58;100.00;97611.09;5107808;27;20047;-76
2022/01/13 06:15:10;;;;;;;72.30;21.38;;;;;;;-4.53;100.00;97614.09;5096147;28;20040;-76
2022/01/13 06:17:38;;;;;;;63.25;18.83;;;;;;;-4.60;100.00;97615.53;5089648;28;20117;-76
2022/01/13 06:20:09;;;;;;;56.30;18.65;;;;;;;-4.64;100.00;97621.84;5093327;28;20043;-76
2022/01/13 06:22:36;;;;;;;77.38;20.65;;;;;;;-4.75;100.00;97620.94;5089632;28;20111;-76
2022/01/13 06:25:04;;;;;;;68.35;20.63;;;;;;;-4.67;100.00;97622.09;5076911;28;20070;-76
2022/01/13 06:27:30;;;;;;;67.90;20.27;;;;;;;-4.65;100.00;97625.38;5101608;28;20556;-76
2022/01/13 06:29:56;;;;;;;50.67;16.15;;;;;;;-4.64;100.00;97627.81;5105898;28;20040;-76
2022/01/13 06:32:22;;;;;;;61.70;20.20;;;;;;;-4.61;100.00;97631.88;5099084;28;20101;-76
2022/01/13 06:34:49;;;;;;;63.20;19.77;;;;;;;-4.59;100.00;97635.16;5071451;28;20457;-76
2022/01/13 06:37:15;;;;;;;62.85;18.90;;;;;;;-4.62;100.00;97636.22;5101607;28;20039;-76
2022/01/13 06:39:40;;;;;;;63.88;20.15;;;;;;;-4.62;100.00;97648.25;5102747;28;20416;-76
2022/01/13 06:42:06;;;;;;;71.40;19.98;;;;;;;-4.90;100.00;97652.94;5103501;28;20119;-76
2022/01/13 06:44:31;;;;;;;71.63;20.38;;;;;;;-5.01;100.00;97645.25;5089638;28;20040;-76
2022/01/13 06:46:57;;;;;;;67.13;20.15;;;;;;;-5.39;100.00;97634.44;5074879;28;20054;-76
2022/01/13 06:49:23;;;;;;;61.65;19.42;;;;;;;-4.91;100.00;97646.19;5103687;28;20042;-76
2022/01/13 06:51:49;;;;;;;62.90;19.13;;;;;;;-4.73;100.00;97644.75;5090664;28;20032;-76
2022/01/13 06:54:14;;;;;;;62.97;17.38;;;;;;;-4.72;100.00;97640.44;5078104;28;20058;-76
2022/01/13 06:56:40;;;;;;;56.28;17.00;;;;;;;-4.88;100.00;97633.13;5109409;28;20397;-76
2022/01/13 06:59:10;;;;;;;67.90;19.33;;;;;;;-5.00;100.00;97632.28;5081839;28;20146;-77
2022/01/13 07:01:37;;;;;;;56.80;18.95;;;;;;;-4.96;100.00;97628.56;5095917;28;20096;-76
2022/01/13 07:04:04;;;;;;;66.45;19.80;;;;;;;-4.91;100.00;97630.78;5097826;28;20040;-76
2022/01/13 07:06:29;;;;;;;61.03;18.17;;;;;;;-4.91;100.00;97630.78;5093217;28;20039;-76
2022/01/13 07:08:55;;;;;;;61.65;17.38;;;;;;;-4.91;100.00;97641.06;5095016;28;20594;-76
2022/01/13 07:11:20;;;;;;;56.00;19.08;;;;;;;-5.05;100.00;97645.50;5092387;28;20051;-76
2022/01/13 07:13:46;;;;;;;63.85;17.70;;;;;;;-5.12;100.00;97644.34;5101475;28;20051;-76
2022/01/13 07:16:11;;;;;;;75.95;17.95;;;;;;;-5.17;100.00;97651.59;5100590;28;20055;-71
2022/01/13 07:18:40;;;;;;;63.28;17.85;;;;;;;-5.31;100.00;97639.81;5100022;28;20039;-77
2022/01/13 07:21:08;;;;;;;61.33;18.00;;;;;;;-5.25;100.00;97644.47;5094061;28;20115;-74
2022/01/13 07:23:34;;;;;;;74.63;20.05;;;;;;;-5.43;100.00;97645.84;5094926;28;20101;-75
2022/01/13 07:26:02;;;;;;;64.38;18.15;;;;;;;-5.42;100.00;97642.38;5094710;28;20043;-75
2022/01/13 07:28:30;;;;;;;69.18;19.65;;;;;;;-5.35;100.00;97647.84;5099627;28;20043;-75
2022/01/13 07:30:57;;;;;;;59.08;17.42;;;;;;;-5.24;100.00;97650.44;5101518;27;20044;-75
2022/01/13 07:33:23;;;;;;;62.70;18.50;;;;;;;-5.24;100.00;97645.28;5089147;28;20125;-78
2022/01/13 07:35:48;;;;;;;49.58;17.20;;;;;;;-5.31;100.00;97644.13;5088744;28;22323;-75
2022/01/13 07:38:14;;;;;;;60.28;18.98;;;;;;;-5.34;100.00;97649.47;5105302;28;20433;-75
2022/01/13 07:40:40;;;;;;;59.53;17.83;;;;;;;-5.49;100.00;97652.25;5095658;28;20047;-76
2022/01/13 07:43:05;;;;;;;57.70;17.90;;;;;;;-5.60;100.00;97665.09;5095475;28;20040;-75
2022/01/13 07:45:31;;;;;;;58.75;18.45;;;;;;;-5.90;100.00;97661.31;5118339;27;20493;-76
2022/01/13 07:47:57;;;;;;;57.42;17.70;;;;;;;-5.75;100.00;97667.03;5097430;28;20050;-76
2022/01/13 07:50:23;;;;;;;56.00;17.50;;;;;;;-5.31;100.00;97659.53;5098339;28;20122;-75
2022/01/13 07:52:48;;;;;;;49.33;16.38;;;;;;;-5.24;100.00;97650.44;5096048;28;20193;-75
2022/01/13 07:55:14;;;;;;;54.45;17.15;;;;;;;-5.21;100.00;97655.31;5092052;28;20118;-75
2022/01/13 07:57:40;;;;;;;61.47;17.05;;;;;;;-5.32;100.00;97647.63;5107784;28;20512;-75
2022/01/13 08:00:08;;;;;;;47.53;16.35;;;;;;;-5.27;100.00;97660.94;5069663;28;20032;-76
2022/01/13 08:02:33;;;;;;;47.30;15.18;;;;;;;-5.25;100.00;97661.63;5095029;28;20126;-74
2022/01/13 08:04:59;;;;;;;59.20;16.73;;;;;;;-5.23;100.00;97672.56;5102198;28;20470;-76
2022/01/13 08:07:24;;;;;;;52.10;16.48;;;;;;;-5.51;100.00;97674.66;5101210;27;20469;-75
2022/01/13 08:09:50;;;;;;;56.40;16.75;;;;;;;-5.56;100.00;97671.63;5115203;27;20446;-75
2022/01/13 08:12:15;;;;;;;54.70;17.50;;;;;;;-5.61;100.00;97683.97;5093505;28;20462;-76
2022/01/13 08:14:41;;;;;;;58.40;17.55;;;;;;;-5.67;100.00;97671.63;5101959;27;20035;-73
2022/01/13 08:17:08;;;;;;;53.28;17.20;;;;;;;-5.36;100.00;97671.88;5117615;27;20100;-75
2022/01/13 08:19:45;;;;;;;51.20;16.95;;;;;;;-5.01;100.00;97683.78;5094739;28;20051;-75
2022/01/13 08:22:13;;;;;;;50.95;17.02;;;;;;;-5.00;100.00;97688.00;5093519;28;20501;-73
2022/01/13 08:24:38;;;;;;;49.95;15.88;;;;;;;-4.88;100.00;97689.63;5092535;28;20042;-75
2022/01/13 08:27:04;;;;;;;48.55;16.92;;;;;;;-4.79;100.00;97681.19;5110031;27;20044;-75
2022/01/13 08:29:30;;;;;;;48.08;15.25;;;;;;;-4.80;100.00;97679.56;5105336;27;20036;-75
2022/01/13 08:31:56;;;;;;;45.75;15.23;;;;;;;-4.79;100.00;97686.34;5096745;27;20051;-76
2022/01/13 08:34:21;;;;;;;40.78;15.32;;;;;;;-4.84;100.00;97683.31;5104081;28;21134;-75
2022/01/13 08:36:47;;;;;;;49.30;15.75;;;;;;;-4.91;100.00;97679.59;5107913;28;20075;-74
2022/01/13 08:39:13;;;;;;;40.17;14.23;;;;;;;-4.95;99.93;97676.44;5085676;28;20823;-74
2022/01/13 08:41:40;;;;;;;44.50;14.57;;;;;;;-4.93;99.89;97684.84;5107267;28;22222;-75
2022/01/13 08:44:06;;;;;;;42.20;13.98;;;;;;;-4.95;100.00;97683.31;5093369;28;20036;-78
2022/01/13 08:46:31;;;;;;;38.80;13.43;;;;;;;-4.89;99.67;97680.28;5111385;27;20033;-77
2022/01/13 08:48:57;;;;;;;43.58;14.38;;;;;;;-4.87;99.32;97678.41;5107195;27;20035;-76
2022/01/13 08:51:22;;;;;;;43.80;14.35;;;;;;;-4.75;99.89;97677.47;5098988;27;20051;-75
2022/01/13 08:53:48;;;;;;;51.05;16.42;;;;;;;-4.72;99.67;97682.34;5093757;28;20055;-76
2022/01/13 08:56:15;;;;;;;46.13;14.93;;;;;;;-4.70;100.00;97680.50;5091029;28;20047;-75
2022/01/13 08:58:41;;;;;;;46.42;15.10;;;;;;;-4.56;98.82;97686.31;5102269;28;20036;-73
2022/01/13 09:01:07;;;;;;;42.40;13.73;;;;;;;-4.59;99.38;97681.41;5107781;28;20416;-75
2022/01/13 09:03:33;;;;;;;44.55;13.68;;;;;;;-4.47;97.13;97690.69;5106763;27;20053;-77
2022/01/13 09:05:59;;;;;;;40.65;13.30;;;;;;;-4.50;96.96;97690.16;5110111;27;20047;-76
2022/01/13 09:08:25;;;;;;;40.60;14.10;;;;;;;-4.71;98.43;97698.59;5102067;27;20040;-76
2022/01/13 09:10:50;;;;;;;37.10;13.32;;;;;;;-4.37;96.78;97695.94;5114192;27;20044;-75
2022/01/13 09:13:17;;;;;;;35.20;13.25;;;;;;;-4.19;96.11;97703.97;5106857;27;20035;-76
2022/01/13 09:15:47;;;;;;;36.63;12.52;;;;;;;-4.11;94.39;97701.56;5100646;27;20036;-75
2022/01/13 09:18:19;;;;;;;33.90;12.25;;;;;;;-4.10;93.25;97695.50;5076100;28;20036;-75
2022/01/13 09:20:46;;;;;;;32.20;11.75;;;;;;;-4.02;93.47;97695.72;5107609;27;20035;-76
2022/01/13 09:23:13;;;;;;;40.25;13.32;;;;;;;-3.93;92.94;97695.91;5120241;27;20047;-76
2022/01/13 09:25:38;;;;;;;45.70;13.95;;;;;;;-3.86;93.30;97694.47;5109093;27;20099;-76
2022/01/13 09:28:06;;;;;;;40.60;13.85;;;;;;;-3.92;94.47;97695.78;5093368;28;20040;-76
2022/01/13 09:30:33;;;;;;;49.53;16.58;;;;;;;-4.19;95.67;97694.50;5103310;27;20079;-77
2022/01/13 09:32:58;;;;;;;49.78;16.35;;;;;;;-3.93;95.83;97689.00;5097357;27;20051;-79
2022/01/13 09:35:24;;;;;;;47.33;16.35;;;;;;;-3.55;94.26;97697.09;5091270;28;20093;-85
2022/01/13 09:37:50;;;;;;;47.80;17.00;;;;;;;-3.39;93.39;97691.50;5093178;28;20036;-74
2022/01/13 09:40:15;;;;;;;53.28;16.92;;;;;;;-3.47;93.26;97699.88;5090996;28;20047;-76
2022/01/13 09:42:43;;;;;;;58.22;18.95;;;;;;;-3.70;94.33;97697.44;5107637;27;20060;-79
2022/01/13 09:45:11;;;;;;;42.88;14.52;;;;;;;-3.35;93.23;97693.72;5104834;27;20135;-85
2022/01/13 09:47:38;;;;;;;46.13;15.40;;;;;;;-3.07;92.80;97700.91;5089354;28;20048;-82
2022/01/13 09:50:10;;;;;;;56.20;17.58;;;;;;;-3.19;92.68;97707.88;5090920;27;20512;-74
2022/01/13 09:52:40;;;;;;;45.25;15.13;;;;;;;-2.90;91.19;97702.03;5098374;27;20054;-75
2022/01/13 09:55:07;;;;;;;53.10;17.38;;;;;;;-2.92;90.62;97706.50;5091679;28;20096;-76
2022/01/13 09:57:33;;;;;;;47.40;16.40;;;;;;;-1.31;85.93;97712.19;5105996;28;20409;-77
2022/01/13 10:00:00;;;;;;;47.95;15.98;;;;;;;0.30;78.25;97707.50;5096415;28;20052;-79
2022/01/13 10:02:26;;;;;;;43.42;16.48;;;;;;;0.71;76.18;97700.03;5116186;28;20040;-79
2022/01/13 10:04:53;;;;;;;49.97;15.40;;;;;;;1.38;72.87;97699.38;5088537;28;20130;-77
2022/01/13 10:07:41;;;;;;;46.97;14.65;;;;;;;1.52;70.49;97693.59;5095553;28;20043;-77
2022/01/13 10:10:13;;;;;;;47.50;15.95;;;;;;;2.07;68.59;97697.41;5097153;28;20051;-76
2022/01/13 10:12:41;;;;;;;44.95;16.20;;;;;;;2.45;67.92;97704.72;5102721;28;20161;-76
2022/01/13 10:17:49;;;;;;;42.75;15.50;;;;;;;2.55;67.89;97692.38;5097448;28;20137;-78
2022/01/13 10:20:19;;;;;;;49.17;17.02;;;;;;;2.94;64.71;97694.28;5107544;28;20120;-78
2022/01/13 10:22:47;;;;;;;41.80;14.90;;;;;;;2.88;63.42;97694.91;5101636;28;20047;-81
2022/01/13 10:25:35;;;;;;;48.58;16.38;;;;;;;2.68;65.46;97672.88;5096308;28;20058;-76
2022/01/13 10:28:12;;;;;;;40.40;14.70;;;;;;;2.97;64.74;97684.50;5090051;28;20047;-77
2022/01/13 10:30:38;;;;;;;47.00;16.20;;;;;;;2.72;65.66;97679.38;5099870;28;20044;-77
2022/01/13 10:33:34;;;;;;;45.33;15.63;;;;;;;2.54;67.00;97669.97;5098758;28;20043;-77
2022/01/13 10:36:12;;;;;;;46.95;15.13;;;;;;;3.66;64.35;97673.47;5083895;28;20047;-78
2022/01/13 10:38:58;;;;;;;35.63;14.02;;;;;;;3.38;61.16;97673.94;5077775;28;20043;-76
2022/01/13 10:42:00;;;;;;;45.13;16.25;;;;;;;4.26;60.02;97664.91;5099361;28;20064;-79
2022/01/13 10:44:23;;;;;;;42.40;15.68;;;;;;;2.78;66.02;97668.28;5089286;28;20043;-78
2022/01/13 10:46:57;;;;;;;44.45;15.05;;;;;;;3.56;62.66;97650.25;5105162;28;20054;-78
2022/01/13 10:49:33;;;;;;;39.30;13.35;;;;;;;4.48;58.97;97657.22;5096602;28;20055;-77
2022/01/13 10:52:18;;;;;;;37.33;14.38;;;;;;;4.76;57.30;97656.63;5107109;28;20489;-75
2022/01/13 10:54:43;;;;;;;36.42;14.05;;;;;;;4.98;56.77;97645.28;5095718;28;20448;-77
2022/01/13 10:57:21;;;;;;;38.38;14.32;;;;;;;5.20;56.79;97645.34;5097459;28;20040;-78
2022/01/13 10:59:47;;;;;;;41.80;15.40;;;;;;;4.91;58.13;97649.59;5116621;27;20043;-77
2022/01/13 11:02:12;;;;;;;33.08;13.18;;;;;;;5.44;54.51;97646.03;5101063;28;20050;-78
2022/01/13 11:04:38;;;;;;;36.35;14.02;;;;;;;5.48;54.01;97644.69;5105698;28;20040;-78
2022/01/13 11:07:21;;;;;;;34.40;13.05;;;;;;;5.27;54.03;97638.44;5098175;28;20036;-78
2022/01/13 11:10:01;;;;;;;37.85;13.88;;;;;;;4.79;57.55;97640.63;5097864;28;20039;-76
2022/01/13 11:12:33;;;;;;;35.83;13.48;;;;;;;5.29;55.91;97636.44;5101067;28;20047;-76
2022/01/13 11:15:04;;;;;;;33.83;13.38;;;;;;;5.64;54.93;97634.00;5100528;27;20051;-76
2022/01/13 11:17:29;;;;;;;33.22;12.65;;;;;;;5.85;52.69;97630.59;5104456;27;20478;-77
2022/01/13 11:19:56;;;;;;;37.40;14.60;;;;;;;6.00;52.46;97617.47;5077221;28;20047;-76
2022/01/13 11:22:23;;;;;;;35.15;13.75;;;;;;;7.08;48.87;97614.59;5108675;28;20424;-76
2022/01/13 11:24:49;;;;;;;44.42;14.40;;;;;;;7.02;49.86;97604.88;5087920;28;20039;-75
2022/01/13 11:27:18;;;;;;;42.47;14.60;;;;;;;5.78;53.63;97608.03;5093496;28;20044;-80
2022/01/13 11:29:45;;;;;;;40.13;14.77;;;;;;;7.33;50.89;97600.97;5106105;27;20039;-77
2022/01/13 11:32:14;;;;;;;39.88;15.13;;;;;;;7.82;48.83;97590.41;5097528;28;20047;-78
2022/01/13 11:34:41;;;;;;;43.95;16.77;;;;;;;7.98;49.70;97584.75;5100933;28;20032;-78
2022/01/13 11:37:07;;;;;;;42.22;15.23;;;;;;;8.45;47.84;97579.50;5100686;28;20043;-76
2022/01/13 11:39:42;;;;;;;42.65;16.25;;;;;;;8.72;47.19;97572.41;5095493;27;20040;-76
2022/01/13 11:42:10;;;;;;;38.15;14.65;;;;;;;8.25;48.27;97582.13;5113503;27;20056;-76